Search for airport 
image banner adimage banner adimage banner ad
image banner ad

KLAX - Los Angeles Intl

Located in Los Angeles, United States

ICAO - LAX, IATA - LAX

Data provided by Airmate  

General information

Coordinates: N33°56'33" W118°24'29"
Elevation is 128 feet MSL.
Magnetic variation is 12° East
View others Airports in California

Operational data

Special qualification required
Current time UTC:
Current local time:
Weather
METAR: KLAX 240853Z 25007KT 10SM FEW009 FEW012 16/14 A3000 RMK AO2 SLP155 T01610144 58004 $
TAF: KLAX 240815Z 2408/2512 24007KT P6SM SCT011 FM241000 25005KT P6SM BKN009 FM241300 VRB03KT P6SM BKN012 FM241800 26006KT P6SM SCT015 FM242000 26014KT P6SM SKC FM250500 25008KT P6SM SKC FM250800 25005KT P6SM BKN010
View NOTAMs / SUP AIP / TFR affecting this airport [VIEW]
Communications frequencies: [VIEW]

Runways:

RWY identifierQFULength (ft)Width (ft)SurfaceLDA (ft)
06R83°10885150CONC9748
24L263°10885150CONC9483
06L83°8926150OTHER8566
24R263°8926150OTHER8926
07R83°11095200OTHER11095
25L263°11095200OTHER11095
07L83°12923150CONC11259
25R263°12923150CONC11134

Airport contact information

Address: Los Angeles United States

Satellite view of KLAX